• Join FlightAware (Why Join?)
  • Login
  • US Flag 
04:32PM EDT


 

Airport Tracker/Info


-or-


 

Live Flight TrackerFlight Track Log ✈ AWE1913 ✈ 30-Apr-2013 ✈ KDTW - KPHL

Flight Track Log - Related Links

Times and Time Zones

All times are in EDT time to prevent confusion due to time zone crossing. See the AWE1913 flight status page for this flight to view local times or setup timezone preferences in your user account.

Time Position Orientation Groundspeed Altitude Reporting Facility
EDT Latitude Longitude Course Direction KTS MPH feet Rate Location/Type
07:25AM 42.1975 -83.3581 90° East 156 180 1,700  Level Cleveland Center
07:26AM 42.1578 -83.3564 178° South 199 229 3,100 2,100 Climbing Cleveland Center
07:27AM 42.0958 -83.3311 163° South 248 285 5,800 2,520 Climbing Cleveland Center
07:28AM 42.2167 -82.8858 90° East  Level FlightAware Approximate
07:28AM 42.0669 -83.2347 112° Southeast 287 330 8,600  Level Cleveland Center
07:29AM 42.2167 -82.7287 90° East  Level FlightAware Approximate
07:29AM 42.0739 -83.1119 86° East 315 362 10,800  Level Cleveland Center
07:30AM 42.2167 -82.5717 90° East  Level FlightAware Approximate
07:30AM 42.1014 -82.9928 73° East 339 390 13,000  Level Cleveland Center
07:31AM 42.1311 -82.8594 73° East 360 414 15,600 2,340 Climbing Cleveland Center
07:32AM 42.1631 -82.7178 73° East 371 427 17,700 1,980 Climbing Cleveland Center
07:33AM 42.1950 -82.5731 73° East 385 443 19,600 1,800 Climbing Cleveland Center
07:34AM 42.2203 -82.4225 77° East 398 458 21,300 1,680 Climbing Cleveland Center
07:35AM 42.2083 -82.2567 95° East 417 480 23,000 1,740 Climbing Cleveland Center
07:36AM 42.1983 -82.0686 94° East 429 494 24,800 1,500 Climbing Cleveland Center
07:37AM 42.1586 -81.9108 109° East 455 524 26,000 1,440 Climbing Cleveland Center
07:38AM 42.0578 -81.7856 137° Southeast 450 518 27,700 1,320 Climbing Cleveland Center
07:39AM 41.9692 -81.6836 139° Southeast 472 543 28,700 1,140 Climbing Cleveland Center
07:40AM 41.8661 -81.5647 139° Southeast 486 559 30,000 1,140 Climbing Cleveland Center
07:41AM 41.7608 -81.4433 139° Southeast 493 567 31,000 480 Climbing Cleveland Center
07:42AM 41.6594 -81.3253 139° Southeast 493 567 31,000  Level Cleveland Center
07:43AM 41.5456 -81.1964 140° Southeast 493 567 31,000 360 Level Cleveland Center
07:44AM 41.4483 -81.0706 136° Southeast 493 567 31,800 1,200 Climbing Cleveland Center
07:45AM 41.3550 -80.9400 134° Southeast 485 558 33,400 1,560 Climbing Cleveland Center
07:46AM 41.2656 -80.8125 133° Southeast 478 550 35,000 780 Climbing Cleveland Center
07:47AM 41.1761 -80.6881 134° Southeast 473 544 35,000  Level Cleveland Center
07:48AM 41.0950 -80.5775 134° Southeast 473 544 35,000  Level Cleveland Center
07:49AM 41.0031 -80.4539 135° Southeast 468 539 35,000  Level Cleveland Center
07:50AM 40.9133 -80.3303 134° Southeast 468 539 35,000  Level Cleveland Center
07:51AM 40.8211 -80.1881 131° Southeast 468 539 35,000  Level Cleveland Center
07:52AM 40.7600 -80.0375 118° Southeast 468 539 35,000  Level Cleveland Center
07:53AM 40.7114 -79.8956 114° Southeast 468 539 35,000  Level Cleveland Center
07:54AM 40.6539 -79.7403 116° Southeast 468 539 35,000 -60 Level Cleveland Center
07:55AM 40.5986 -79.5878 115° Southeast 468 539 34,900 -540 Descending Cleveland Center
07:56AM 40.5431 -79.4356 116° Southeast 468 539 34,000 -900 Descending Cleveland Center
07:57AM 40.4744 -79.2675 118° Southeast 468 539 33,100 -540 Descending Cleveland Center
07:58AM 40.4183 -79.1131 115° Southeast 463 533 33,000 -60 Descending Cleveland Center
07:59AM 40.3664 -78.9700 115° Southeast 470 541 33,000  Level Cleveland Center
08:00AM 40.3244 -78.8075 109° East 470 541 33,000  Level Cleveland Center
08:01AM 40.3153 -78.6361 94° East 464 534 33,000 -300 Level Cleveland Center
08:02AM 40.3144 -78.4647 90° East 464 534 32,400 -1,680 Descending Cleveland Center
08:03AM 40.3131 -78.2931 91° East 464 534 29,700 -2,220 Descending Cleveland Center
08:05AM 40.3114 -77.8950 90° East 462 532 25,000 -1,800 Descending New York Center
08:06AM 40.3392 -77.7425 77° East 426 490 23,900 -1,380 Descending New York Center
08:07AM 40.3689 -77.5900 76° East 426 490 22,400 -1,440 Descending New York Center
08:08AM 40.3072 -77.4642 123° Southeast 382 440 21,100 -1,200 Descending New York Center
08:09AM 40.2714 -77.3219 108° East 393 452 20,100 -900 Descending New York Center
08:10AM 40.2533 -77.1950 101° East 398 458 19,300 -960 Descending New York Center
08:11AM 40.2306 -77.0381 101° East 398 458 18,200 -900 Descending New York Center
08:12AM 40.2142 -76.9114 100° East 393 452 17,600 -840 Descending New York Center
08:13AM 40.1919 -76.7764 102° East 393 452 16,600 -1,080 Descending New York Center
08:14AM 40.1706 -76.6250 100° East 387 445 15,500 -1,020 Descending New York Center
08:15AM 40.1517 -76.4983 101° East 369 425 14,600 -960 Descending New York Center
08:16AM 40.1342 -76.3831 101° East 335 386 13,600 -1,020 Descending New York Center
08:17AM 40.1200 -76.2867 101° East 313 360 12,700 -1,020 Descending New York Center
08:18AM 40.1131 -76.1667 94° East 306 352 11,600 -1,020 Descending New York Center
08:19AM 40.1031 -76.0628 97° East 296 341 10,700 -1,140 Descending New York Center
08:20AM 40.0975 -75.9592 94° East 291 335 9,400 -1,320 Descending New York Center
08:21AM 40.1017 -75.8619 87° East 279 321 8,100 -720 Descending New York Center
08:22AM 40.1481 -75.7975 47° Northeast 256 295 8,000 -60 Descending New York Center
08:23AM 40.2100 -75.7122 46° Northeast 280 322 8,000  Level New York Center
08:24AM 40.2389 -75.6217 67° East 274 315 8,000  Level New York Center
08:25AM 40.2319 -75.5369 96° East 257 296 8,000  Level New York Center
08:26AM 40.1753 -75.4922 149° Southeast 215 247 8,000 -660 Level New York Center
08:27AM 40.1125 -75.4447 150° Southeast 233 268 6,700 -1,020 Descending New York Center
08:28AM 40.0642 -75.4061 149° Southeast 233 268 6,000 -360 Descending New York Center
08:29AM 39.9956 -75.4017 177° South 233 268 6,000  Level New York Center
08:30AM 39.9411 -75.4061 184° South 233 268 6,000 -120 Level New York Center
08:31AM 39.9175 -75.4775 247° West 191 220 5,800 -660 Descending New York Center
08:34AM 39.8500 -75.5667 225° Southwest 169 194 3,900 -840 Descending Philadelphia TRACON
08:35AM 39.8333 -75.5167 113° Southeast 171 197 3,000 -540 Descending Philadelphia TRACON
08:36AM 39.8167 -75.4667 113° Southeast 164 189 2,900 -540 Descending Philadelphia TRACON
08:37AM 39.8333 -75.4000 72° East 159 183 2,000 -900 Descending Philadelphia TRACON